Terminal Aerodrome Forecast
Issued by NWS Cleveland, OH

Home | Current Version | Previous Version | Graphics & Text | Print | Product List | Glossary On
Versions: 1 2 3 4 5 6 7 8 9 10 11 12 13 14 15 16 17 18 19
235
FTUS41 KCLE 052339
TAFERI
TAF
KERI 052339Z 0600/0624 24005KT P6SM OVC040
     FM060800 12008KT P6SM OVC100
     FM061200 12012G20KT P6SM OVC050
     FM061700 12015G25KT P6SM -RA OVC030
     FM062100 12015G25KT 3SM -RA BR OVC008=

USA.gov is the U.S. government's official web portal to all federal, state and local government web resources and services.